createdAt,value
2017-07-25T00:00:08.758Z,0
2017-07-25T00:00:49.322Z,0
2017-07-25T00:01:29.897Z,0
2017-07-25T00:02:10.473Z,0
2017-07-25T00:02:51.059Z,0
2017-07-25T00:03:31.627Z,0
2017-07-25T00:04:12.208Z,0
2017-07-25T00:04:52.805Z,0
2017-07-25T00:05:33.388Z,0
2017-07-25T00:06:13.963Z,0
2017-07-25T00:06:54.531Z,0
2017-07-25T00:07:35.097Z,0
2017-07-25T00:08:15.678Z,0
2017-07-25T00:08:56.269Z,0
2017-07-25T00:09:36.834Z,0
2017-07-25T00:10:17.407Z,0
2017-07-25T00:10:57.977Z,0
2017-07-25T00:11:38.584Z,0
2017-07-25T00:12:19.190Z,0
2017-07-25T00:12:59.768Z,0
2017-07-25T00:13:40.345Z,0
2017-07-25T00:14:20.931Z,0
2017-07-25T00:15:01.493Z,0
2017-07-25T00:15:42.062Z,0
2017-07-25T00:16:22.628Z,0
2017-07-25T00:17:03.198Z,0
2017-07-25T00:17:43.764Z,0
2017-07-25T00:18:24.339Z,0
2017-07-25T00:19:04.899Z,0
2017-07-25T00:19:45.457Z,0
2017-07-25T00:20:26.040Z,0
2017-07-25T00:21:06.635Z,0
2017-07-25T00:21:47.195Z,0
2017-07-25T00:22:27.761Z,0
2017-07-25T00:23:08.360Z,0
2017-07-25T00:23:48.926Z,0
2017-07-25T00:24:29.497Z,0
2017-07-25T00:25:10.065Z,0
2017-07-25T00:25:50.639Z,0
2017-07-25T00:26:31.206Z,0
2017-07-25T00:27:11.776Z,0
2017-07-25T00:27:52.353Z,0
2017-07-25T00:28:32.931Z,0
2017-07-25T00:29:13.499Z,0
2017-07-25T00:29:54.089Z,0
2017-07-25T00:30:34.799Z,0
2017-07-25T00:31:15.390Z,0
2017-07-25T00:31:55.959Z,0
2017-07-25T00:32:36.532Z,0
2017-07-25T00:33:17.127Z,0
2017-07-25T00:33:57.714Z,0
2017-07-25T00:34:38.290Z,0
2017-07-25T00:35:18.879Z,0
2017-07-25T00:35:59.445Z,0
2017-07-25T00:36:40.007Z,0
2017-07-25T00:37:20.567Z,0
2017-07-25T00:38:01.138Z,0
2017-07-25T00:38:41.733Z,0
2017-07-25T00:39:22.301Z,0
2017-07-25T00:40:02.874Z,0
2017-07-25T00:40:43.436Z,0
2017-07-25T00:41:23.999Z,0
2017-07-25T00:42:04.570Z,0
2017-07-25T00:42:45.140Z,0
2017-07-25T00:43:25.706Z,0
2017-07-25T00:44:06.280Z,0
2017-07-25T00:44:46.845Z,0
2017-07-25T00:45:27.437Z,0
2017-07-25T00:46:07.998Z,0
2017-07-25T00:46:48.579Z,0
2017-07-25T00:47:29.142Z,0
2017-07-25T00:48:09.712Z,0
2017-07-25T00:48:50.279Z,0
2017-07-25T00:49:30.847Z,0
2017-07-25T00:50:11.417Z,0
2017-07-25T00:50:51.988Z,0
2017-07-25T00:51:32.552Z,0
2017-07-25T00:52:13.148Z,0
2017-07-25T00:52:53.721Z,0
2017-07-25T00:53:34.304Z,0
2017-07-25T00:54:14.869Z,0
2017-07-25T00:54:55.476Z,0
2017-07-25T00:55:36.045Z,0
2017-07-25T00:56:16.645Z,0
2017-07-25T00:56:57.240Z,0
2017-07-25T00:57:37.819Z,0
2017-07-25T00:58:18.404Z,0
2017-07-25T00:58:58.987Z,0
2017-07-25T00:59:39.550Z,0
2017-07-25T01:00:20.132Z,0
2017-07-25T01:01:00.723Z,0
2017-07-25T01:01:41.305Z,0
2017-07-25T01:02:21.867Z,0
2017-07-25T01:03:02.434Z,0
2017-07-25T01:03:43.005Z,0
2017-07-25T01:04:23.566Z,0
2017-07-25T01:05:04.155Z,0
2017-07-25T01:05:44.729Z,0
2017-07-25T01:06:25.319Z,0
2017-07-25T01:07:05.912Z,0
2017-07-25T01:07:46.484Z,0
2017-07-25T01:08:27.060Z,0
2017-07-25T01:09:07.621Z,0
2017-07-25T01:09:48.201Z,0
2017-07-25T01:10:28.774Z,0
2017-07-25T01:11:09.337Z,0
2017-07-25T01:11:49.906Z,0
2017-07-25T01:12:30.480Z,0
2017-07-25T01:13:11.057Z,0
2017-07-25T01:13:51.621Z,0
2017-07-25T01:14:32.199Z,0
2017-07-25T01:15:12.782Z,0
2017-07-25T01:15:53.372Z,0
2017-07-25T01:16:33.942Z,0
2017-07-25T01:17:14.532Z,0
2017-07-25T01:17:55.115Z,0
2017-07-25T01:18:35.753Z,0
2017-07-25T01:19:16.344Z,0
2017-07-25T01:19:56.905Z,0
2017-07-25T01:20:37.492Z,0
2017-07-25T01:21:18.073Z,0
2017-07-25T01:21:58.645Z,0
2017-07-25T01:22:39.205Z,0
2017-07-25T01:23:19.779Z,0
2017-07-25T01:24:00.341Z,0
2017-07-25T01:24:40.914Z,0
2017-07-25T01:25:21.478Z,0
2017-07-25T01:26:02.058Z,0
2017-07-25T01:26:42.626Z,0
2017-07-25T01:27:23.231Z,0
2017-07-25T01:28:03.818Z,0
2017-07-25T01:28:44.390Z,0
2017-07-25T01:29:24.984Z,0
2017-07-25T01:30:05.547Z,0
2017-07-25T01:30:46.131Z,0
2017-07-25T01:31:26.699Z,0
2017-07-25T01:32:07.263Z,0
2017-07-25T01:32:47.829Z,0
2017-07-25T01:33:28.390Z,0
2017-07-25T01:34:08.954Z,0
2017-07-25T01:34:49.531Z,0
2017-07-25T01:35:30.115Z,0
2017-07-25T01:36:10.680Z,0
2017-07-25T01:36:51.246Z,0
2017-07-25T01:37:31.798Z,0
2017-07-25T01:38:12.370Z,0
2017-07-25T01:38:52.962Z,0
2017-07-25T01:39:33.506Z,0
2017-07-25T01:40:14.069Z,0
2017-07-25T01:40:54.632Z,0
2017-07-25T01:41:35.202Z,0
2017-07-25T01:42:15.772Z,0
2017-07-25T01:42:56.343Z,0
2017-07-25T01:43:36.916Z,0
2017-07-25T01:44:17.491Z,0
2017-07-25T01:44:58.058Z,0
2017-07-25T01:45:38.627Z,0
2017-07-25T01:46:19.200Z,0
2017-07-25T01:46:59.782Z,0
2017-07-25T01:47:40.402Z,0
2017-07-25T01:48:20.960Z,0
2017-07-25T01:49:01.556Z,0
2017-07-25T01:49:42.122Z,0
2017-07-25T01:50:22.694Z,0
2017-07-25T01:51:03.274Z,0
2017-07-25T01:51:43.843Z,0
2017-07-25T01:52:24.421Z,0
2017-07-25T01:53:04.994Z,0
2017-07-25T01:53:45.562Z,0
2017-07-25T01:54:26.132Z,0
2017-07-25T01:55:06.708Z,0
2017-07-25T01:55:47.288Z,0
2017-07-25T01:56:27.858Z,0
2017-07-25T01:57:08.423Z,0
2017-07-25T01:57:48.993Z,0
2017-07-25T01:58:29.567Z,0
2017-07-25T01:59:10.150Z,0
2017-07-25T01:59:50.722Z,0
2017-07-25T02:00:31.295Z,0
2017-07-25T02:01:11.857Z,0
2017-07-25T02:01:52.435Z,0
2017-07-25T02:02:33.027Z,0
2017-07-25T02:03:13.607Z,0
2017-07-25T02:03:54.186Z,0
2017-07-25T02:04:34.773Z,0
2017-07-25T02:05:15.339Z,0
2017-07-25T02:05:55.922Z,0
2017-07-25T02:06:36.496Z,0
2017-07-25T02:07:17.060Z,0
2017-07-25T02:07:57.628Z,0
2017-07-25T02:08:38.208Z,0
2017-07-25T02:09:18.781Z,0
2017-07-25T02:09:59.360Z,0
2017-07-25T02:10:39.924Z,0
2017-07-25T02:11:20.493Z,0
2017-07-25T02:12:01.099Z,0
2017-07-25T02:12:41.674Z,0
2017-07-25T02:13:22.237Z,0
2017-07-25T02:14:02.809Z,0
2017-07-25T02:14:43.426Z,0
2017-07-25T02:15:23.980Z,0
2017-07-25T02:16:04.543Z,0
2017-07-25T02:16:45.125Z,0
2017-07-25T02:17:25.696Z,0
2017-07-25T02:18:06.280Z,0
2017-07-25T02:18:46.852Z,0
2017-07-25T02:19:27.429Z,0
2017-07-25T02:20:08.006Z,0
2017-07-25T02:20:48.583Z,0
2017-07-25T02:21:29.158Z,0
2017-07-25T02:22:09.722Z,0
2017-07-25T02:22:50.299Z,0
2017-07-25T02:23:30.871Z,0
2017-07-25T02:24:11.439Z,0
2017-07-25T02:24:52.013Z,0
2017-07-25T02:25:32.585Z,0
2017-07-25T02:26:13.173Z,0
2017-07-25T02:26:53.748Z,0
2017-07-25T02:27:34.316Z,0
2017-07-25T02:28:14.914Z,0
2017-07-25T02:28:55.507Z,0
2017-07-25T02:29:36.077Z,0
2017-07-25T02:30:16.664Z,0
2017-07-25T02:30:57.265Z,0
2017-07-25T02:31:37.855Z,0
2017-07-25T02:32:18.456Z,0
2017-07-25T02:32:59.046Z,0
2017-07-25T02:33:39.609Z,0
2017-07-25T02:34:20.213Z,0
2017-07-25T02:35:00.787Z,0
2017-07-25T02:35:41.349Z,0
2017-07-25T02:36:21.928Z,0
2017-07-25T02:37:02.521Z,0
2017-07-25T02:37:43.084Z,0
2017-07-25T02:38:23.679Z,0
2017-07-25T02:39:04.248Z,0
2017-07-25T02:39:44.824Z,0
2017-07-25T02:40:25.390Z,0
2017-07-25T02:41:05.958Z,0
2017-07-25T02:41:46.527Z,0
2017-07-25T02:42:27.103Z,0
2017-07-25T02:43:07.671Z,0
2017-07-25T02:43:48.242Z,0
2017-07-25T02:44:28.812Z,0
2017-07-25T02:45:09.382Z,0
2017-07-25T02:45:49.946Z,0
2017-07-25T02:46:30.521Z,0
2017-07-25T02:47:11.086Z,0
2017-07-25T02:47:51.655Z,0
2017-07-25T02:48:32.229Z,0
2017-07-25T02:49:12.799Z,0
2017-07-25T02:49:53.366Z,0
2017-07-25T02:50:33.932Z,0
2017-07-25T02:51:14.496Z,0
2017-07-25T02:51:55.100Z,0
2017-07-25T02:52:35.688Z,0
2017-07-25T02:53:16.255Z,0
2017-07-25T02:53:56.833Z,0
2017-07-25T02:54:37.408Z,0
2017-07-25T02:55:17.998Z,0
2017-07-25T02:55:58.565Z,0
2017-07-25T02:56:39.237Z,0
2017-07-25T02:57:19.852Z,0
2017-07-25T02:58:00.421Z,0
2017-07-25T02:58:40.996Z,0
2017-07-25T02:59:21.563Z,0
2017-07-25T03:00:02.172Z,0
2017-07-25T03:00:42.734Z,0
2017-07-25T03:01:23.298Z,0
2017-07-25T03:02:03.868Z,0
2017-07-25T03:02:44.460Z,0
2017-07-25T03:03:25.037Z,0
2017-07-25T03:04:05.602Z,0
2017-07-25T03:04:46.174Z,0
2017-07-25T03:05:26.744Z,0
2017-07-25T03:06:07.311Z,0
2017-07-25T03:06:47.880Z,0
2017-07-25T03:07:28.454Z,0
2017-07-25T03:08:09.030Z,0
2017-07-25T03:08:49.631Z,0
2017-07-25T03:09:30.188Z,0
2017-07-25T03:10:10.766Z,0
2017-07-25T03:10:51.350Z,0
2017-07-25T03:11:31.912Z,0
2017-07-25T03:12:12.477Z,0
2017-07-25T03:12:53.147Z,0
2017-07-25T03:13:33.703Z,0
2017-07-25T03:14:14.271Z,0
2017-07-25T03:14:54.848Z,0
2017-07-25T03:15:35.414Z,0
2017-07-25T03:16:15.978Z,0
2017-07-25T03:16:56.551Z,0
2017-07-25T03:17:37.124Z,0
2017-07-25T03:18:17.697Z,0
2017-07-25T03:18:58.283Z,0
2017-07-25T03:19:38.855Z,0
2017-07-25T03:20:19.419Z,0
2017-07-25T03:20:59.993Z,0
2017-07-25T03:21:40.572Z,0
2017-07-25T03:22:21.146Z,0
2017-07-25T03:23:01.708Z,0
2017-07-25T03:23:42.299Z,0
2017-07-25T03:24:22.895Z,0
2017-07-25T03:25:03.469Z,0
2017-07-25T03:25:44.029Z,0
2017-07-25T03:26:24.616Z,0
2017-07-25T03:27:05.204Z,0
2017-07-25T03:27:45.906Z,0
2017-07-25T03:28:26.512Z,0
2017-07-25T03:29:07.082Z,0
2017-07-25T03:29:47.673Z,0
2017-07-25T03:30:28.263Z,0
2017-07-25T03:31:08.843Z,0
2017-07-25T03:31:49.408Z,0
2017-07-25T03:32:29.982Z,0
2017-07-25T03:33:10.566Z,0
2017-07-25T03:33:51.133Z,0
2017-07-25T03:34:31.734Z,0
2017-07-25T03:35:12.457Z,0
2017-07-25T03:35:52.871Z,0
2017-07-25T03:36:33.453Z,0
2017-07-25T03:37:14.026Z,0
2017-07-25T03:37:54.589Z,0
2017-07-25T03:38:35.180Z,0
2017-07-25T03:39:15.739Z,0
2017-07-25T03:39:56.326Z,0
2017-07-25T03:40:36.896Z,0
2017-07-25T03:41:17.479Z,0
2017-07-25T03:41:58.050Z,0
2017-07-25T03:42:38.636Z,0
2017-07-25T03:43:19.246Z,0
2017-07-25T03:43:59.848Z,0
2017-07-25T03:44:40.444Z,0
2017-07-25T03:45:21.030Z,0
2017-07-25T03:46:01.607Z,0
2017-07-25T03:46:42.205Z,0
2017-07-25T03:47:22.780Z,0
2017-07-25T03:48:03.345Z,0
2017-07-25T03:48:43.939Z,0
2017-07-25T03:49:24.511Z,0
2017-07-25T03:50:05.098Z,0
2017-07-25T03:50:45.716Z,0
2017-07-25T03:51:26.291Z,0
2017-07-25T03:52:06.866Z,0
2017-07-25T03:52:47.472Z,0
2017-07-25T03:53:28.046Z,0
2017-07-25T03:54:08.617Z,0
2017-07-25T03:54:49.210Z,0
2017-07-25T03:55:29.777Z,0
2017-07-25T03:56:10.360Z,0
2017-07-25T03:56:50.933Z,0
2017-07-25T03:57:31.615Z,0
2017-07-25T03:58:12.185Z,0
2017-07-25T03:58:52.758Z,0
2017-07-25T03:59:33.346Z,0
2017-07-25T04:00:13.903Z,0
2017-07-25T04:00:54.466Z,0
2017-07-25T04:01:35.028Z,0
2017-07-25T04:02:15.609Z,0
2017-07-25T04:02:56.172Z,0
2017-07-25T04:03:36.753Z,0
2017-07-25T04:04:17.329Z,0
2017-07-25T04:04:57.896Z,0
2017-07-25T04:05:38.469Z,0
2017-07-25T04:06:19.046Z,0
2017-07-25T04:06:59.646Z,0
2017-07-25T04:07:40.196Z,0
2017-07-25T04:08:20.787Z,0
2017-07-25T04:09:01.382Z,0
2017-07-25T04:09:41.974Z,0
2017-07-25T04:10:22.554Z,0
2017-07-25T04:11:03.120Z,0
2017-07-25T04:11:43.704Z,0
2017-07-25T04:12:24.288Z,0
2017-07-25T04:13:04.890Z,0
2017-07-25T04:13:45.500Z,0
2017-07-25T04:14:26.117Z,0
2017-07-25T04:15:06.693Z,0
2017-07-25T04:15:47.272Z,0
2017-07-25T04:16:27.842Z,0
2017-07-25T04:17:08.420Z,0
2017-07-25T04:17:49.232Z,0
2017-07-25T04:18:29.800Z,0
2017-07-25T04:19:10.377Z,0
2017-07-25T04:19:50.970Z,0
2017-07-25T04:20:31.555Z,0
2017-07-25T04:21:12.132Z,0
2017-07-25T04:21:52.704Z,0
2017-07-25T04:22:33.270Z,0
2017-07-25T04:23:13.872Z,0
2017-07-25T04:23:54.417Z,0
2017-07-25T04:24:34.980Z,0
2017-07-25T04:25:15.564Z,5
2017-07-25T04:25:56.147Z,5
2017-07-25T04:26:36.710Z,5
2017-07-25T04:27:17.293Z,5
2017-07-25T04:27:57.869Z,5
2017-07-25T04:28:38.431Z,0
2017-07-25T04:29:19.013Z,0
2017-07-25T04:29:59.593Z,0
2017-07-25T04:30:40.172Z,0
2017-07-25T04:31:20.751Z,0
2017-07-25T04:32:01.326Z,5
2017-07-25T04:32:41.888Z,5
2017-07-25T04:33:22.454Z,5
2017-07-25T04:34:03.023Z,5
2017-07-25T04:34:43.604Z,5
2017-07-25T04:35:24.173Z,5
2017-07-25T04:36:04.764Z,5
2017-07-25T04:36:45.371Z,5
2017-07-25T04:37:25.958Z,5
2017-07-25T04:38:06.546Z,5
2017-07-25T04:38:47.131Z,5
2017-07-25T04:39:27.711Z,5
2017-07-25T04:40:08.302Z,5
2017-07-25T04:40:48.892Z,5
2017-07-25T04:41:29.471Z,5
2017-07-25T04:42:10.060Z,5
2017-07-25T04:42:50.626Z,5
2017-07-25T04:43:31.185Z,5
2017-07-25T04:44:11.767Z,5
2017-07-25T04:44:52.362Z,5
2017-07-25T04:45:32.944Z,5
2017-07-25T04:46:13.508Z,5
2017-07-25T04:46:54.073Z,5
2017-07-25T04:47:34.656Z,5
2017-07-25T04:48:15.257Z,5
2017-07-25T04:48:55.833Z,5
2017-07-25T04:49:36.422Z,5
2017-07-25T04:50:17.004Z,5
2017-07-25T04:50:57.575Z,5
2017-07-25T04:51:38.166Z,5
2017-07-25T04:52:18.759Z,5
2017-07-25T04:52:59.319Z,5
2017-07-25T04:53:39.921Z,5
2017-07-25T04:54:20.544Z,5
2017-07-25T04:55:01.120Z,5
2017-07-25T04:55:41.682Z,5
2017-07-25T04:56:22.263Z,5
2017-07-25T04:57:02.829Z,5
2017-07-25T04:57:43.395Z,5
2017-07-25T04:58:24.015Z,5
2017-07-25T04:59:04.600Z,5
2017-07-25T04:59:45.211Z,5
2017-07-25T05:00:25.801Z,5
2017-07-25T05:01:06.420Z,5
2017-07-25T05:01:47.010Z,5
2017-07-25T05:02:27.615Z,5
2017-07-25T05:03:08.213Z,5
2017-07-25T05:03:48.791Z,5
2017-07-25T05:04:29.435Z,5
2017-07-25T05:05:10.003Z,5
2017-07-25T05:05:50.604Z,5
2017-07-25T05:06:31.211Z,5
2017-07-25T05:07:11.802Z,5
2017-07-25T05:07:52.370Z,5
2017-07-25T05:08:32.963Z,5
2017-07-25T05:09:13.553Z,5
2017-07-25T05:09:54.169Z,5
2017-07-25T05:10:34.761Z,5
2017-07-25T05:11:15.304Z,5
2017-07-25T05:11:55.886Z,5
2017-07-25T05:12:36.449Z,5
2017-07-25T05:13:17.018Z,5
2017-07-25T05:13:57.606Z,5
2017-07-25T05:14:38.179Z,5
2017-07-25T05:15:18.768Z,5
2017-07-25T05:15:59.345Z,0
2017-07-25T05:16:39.946Z,0
2017-07-25T05:17:20.530Z,5
2017-07-25T05:18:01.125Z,5
2017-07-25T05:18:41.690Z,5
2017-07-25T05:19:22.265Z,5
2017-07-25T05:20:02.835Z,5
2017-07-25T05:20:43.428Z,5
2017-07-25T05:21:24.055Z,5
2017-07-25T05:22:04.628Z,0
2017-07-25T05:22:45.202Z,0
2017-07-25T05:23:25.802Z,0
2017-07-25T05:24:06.418Z,5
2017-07-25T05:24:47.014Z,5
2017-07-25T05:25:27.596Z,5
2017-07-25T05:26:08.179Z,5
2017-07-25T05:26:48.745Z,5
2017-07-25T05:27:29.347Z,5
2017-07-25T05:28:09.927Z,5
2017-07-25T05:28:50.494Z,5
2017-07-25T05:29:31.082Z,5
2017-07-25T05:30:11.672Z,5
2017-07-25T05:30:52.233Z,5
2017-07-25T05:31:32.794Z,5
2017-07-25T05:32:13.385Z,5
2017-07-25T05:32:53.973Z,5
2017-07-25T05:33:34.555Z,5
2017-07-25T05:34:15.146Z,5
2017-07-25T05:34:55.729Z,0
2017-07-25T05:35:36.314Z,5
2017-07-25T05:36:16.880Z,5
2017-07-25T05:36:57.467Z,5
2017-07-25T05:37:38.052Z,5
2017-07-25T05:38:18.618Z,5
2017-07-25T05:38:59.183Z,5
2017-07-25T05:39:39.780Z,5
2017-07-25T05:40:20.372Z,5
2017-07-25T05:41:00.958Z,5
2017-07-25T05:41:41.533Z,10
2017-07-25T05:42:22.147Z,10
2017-07-25T05:43:02.745Z,10
2017-07-25T05:43:43.321Z,10
2017-07-25T05:44:23.920Z,10
2017-07-25T05:45:04.486Z,10
2017-07-25T05:45:45.061Z,10
2017-07-25T05:46:25.776Z,10
2017-07-25T05:47:06.361Z,10
2017-07-25T05:47:46.933Z,10
2017-07-25T05:48:27.531Z,10
2017-07-25T05:49:08.117Z,5
2017-07-25T05:49:48.688Z,5
2017-07-25T05:50:29.298Z,5
2017-07-25T05:51:09.890Z,5
2017-07-25T05:51:50.492Z,5
2017-07-25T05:52:31.061Z,5
2017-07-25T05:53:11.644Z,5
2017-07-25T05:53:52.225Z,5
2017-07-25T05:54:32.806Z,5
2017-07-25T05:55:13.384Z,5
2017-07-25T05:55:53.958Z,5
2017-07-25T05:56:34.563Z,5
2017-07-25T05:57:15.158Z,5
2017-07-25T05:57:55.814Z,5
2017-07-25T05:58:36.431Z,10
2017-07-25T05:59:17.003Z,5
2017-07-25T05:59:57.605Z,5
2017-07-25T06:00:38.207Z,10
2017-07-25T06:01:18.810Z,5
2017-07-25T06:01:59.410Z,5
2017-07-25T06:02:39.993Z,5
2017-07-25T06:03:20.559Z,5
2017-07-25T06:04:01.132Z,5
2017-07-25T06:04:41.701Z,5
2017-07-25T06:05:22.257Z,5
2017-07-25T06:06:02.817Z,5
2017-07-25T06:06:43.416Z,5
2017-07-25T06:07:23.966Z,5
2017-07-25T06:08:04.539Z,10
2017-07-25T06:08:45.101Z,10
2017-07-25T06:09:25.686Z,10
2017-07-25T06:10:06.252Z,10
2017-07-25T06:10:46.822Z,10
2017-07-25T06:11:27.398Z,15
2017-07-25T06:12:08.083Z,15
2017-07-25T06:12:48.686Z,15
2017-07-25T06:13:29.756Z,10
2017-07-25T06:14:10.601Z,10
2017-07-25T06:14:51.178Z,10
2017-07-25T06:15:31.744Z,10
2017-07-25T06:16:12.304Z,10
2017-07-25T06:16:52.896Z,10
2017-07-25T06:17:33.471Z,10
2017-07-25T06:18:14.027Z,10
2017-07-25T06:18:54.595Z,10
2017-07-25T06:19:35.170Z,10
2017-07-25T06:20:15.744Z,15
2017-07-25T06:20:56.356Z,10
2017-07-25T06:21:36.937Z,15
2017-07-25T06:22:17.516Z,15
2017-07-25T06:22:58.082Z,20
2017-07-25T06:23:38.654Z,20
2017-07-25T06:24:19.216Z,20
2017-07-25T06:24:59.825Z,15
2017-07-25T06:25:40.398Z,15
2017-07-25T06:26:20.965Z,15
2017-07-25T06:27:01.520Z,20
2017-07-25T06:27:42.103Z,20
2017-07-25T06:28:22.685Z,20
2017-07-25T06:29:03.275Z,15
2017-07-25T06:29:43.837Z,15
2017-07-25T06:30:24.425Z,15
2017-07-25T06:31:04.993Z,15
2017-07-25T06:31:45.565Z,15
2017-07-25T06:32:26.139Z,15
2017-07-25T06:33:06.740Z,20
2017-07-25T06:33:47.298Z,20
2017-07-25T06:34:27.857Z,20
2017-07-25T06:35:08.425Z,15
2017-07-25T06:35:48.981Z,15
2017-07-25T06:36:29.582Z,15
2017-07-25T06:37:10.177Z,10
2017-07-25T06:37:50.765Z,10
2017-07-25T06:38:31.339Z,10
2017-07-25T06:39:11.916Z,10
2017-07-25T06:39:52.481Z,10
2017-07-25T06:40:33.076Z,15
2017-07-25T06:41:13.648Z,10
2017-07-25T06:41:54.217Z,15
2017-07-25T06:42:34.782Z,15
2017-07-25T06:43:15.360Z,10
2017-07-25T06:43:55.941Z,15
2017-07-25T06:44:36.524Z,15
2017-07-25T06:45:17.090Z,15
2017-07-25T06:45:57.685Z,15
2017-07-25T06:46:38.266Z,15
2017-07-25T06:47:18.839Z,15
2017-07-25T06:47:59.400Z,15
2017-07-25T06:48:39.960Z,15
2017-07-25T06:49:20.540Z,15
2017-07-25T06:50:01.124Z,15
2017-07-25T06:50:41.693Z,15
2017-07-25T06:51:22.273Z,20
2017-07-25T06:52:02.860Z,20
2017-07-25T06:52:43.441Z,20
2017-07-25T06:53:24.020Z,20
2017-07-25T06:54:04.630Z,15
2017-07-25T06:54:45.232Z,15
2017-07-25T06:55:25.803Z,15
2017-07-25T06:56:06.390Z,15
2017-07-25T06:56:46.954Z,10
2017-07-25T06:57:27.561Z,15
2017-07-25T06:58:08.135Z,15
2017-07-25T06:58:48.720Z,15
2017-07-25T06:59:29.288Z,15
2017-07-25T07:00:09.875Z,15
2017-07-25T07:00:50.456Z,15
2017-07-25T07:01:31.045Z,15
2017-07-25T07:02:11.624Z,20
2017-07-25T07:02:52.241Z,15
2017-07-25T07:03:32.801Z,15
2017-07-25T07:04:13.419Z,15
2017-07-25T07:04:53.994Z,20
2017-07-25T07:05:34.604Z,20
2017-07-25T07:06:15.176Z,15
2017-07-25T07:06:55.758Z,15
2017-07-25T07:07:36.332Z,20
2017-07-25T07:08:16.910Z,15
2017-07-25T07:08:57.486Z,15
2017-07-25T07:09:38.054Z,15
2017-07-25T07:10:18.658Z,20
2017-07-25T07:10:59.220Z,20
2017-07-25T07:11:40.014Z,25
2017-07-25T07:12:20.585Z,25
2017-07-25T07:13:01.155Z,25
2017-07-25T07:13:41.722Z,25
2017-07-25T07:14:22.323Z,20
2017-07-25T07:15:02.919Z,20
2017-07-25T07:15:43.480Z,20
2017-07-25T07:16:24.063Z,20
2017-07-25T07:17:04.648Z,25
2017-07-25T07:17:45.246Z,30
2017-07-25T07:18:25.844Z,25
2017-07-25T07:19:06.408Z,25
2017-07-25T07:19:46.993Z,30
2017-07-25T07:20:27.577Z,30
2017-07-25T07:21:08.196Z,25
2017-07-25T07:21:48.783Z,25
2017-07-25T07:22:29.356Z,30
2017-07-25T07:23:09.933Z,25
2017-07-25T07:23:50.499Z,25
2017-07-25T07:24:31.074Z,25
2017-07-25T07:25:11.655Z,25
2017-07-25T07:25:52.213Z,25
2017-07-25T07:26:32.804Z,25
2017-07-25T07:27:13.383Z,25
2017-07-25T07:27:53.947Z,25
2017-07-25T07:28:34.514Z,30
2017-07-25T07:29:15.089Z,30
2017-07-25T07:29:55.658Z,30
2017-07-25T07:30:36.247Z,25
2017-07-25T07:31:16.839Z,30
2017-07-25T07:31:57.408Z,30
2017-07-25T07:32:38.020Z,30
2017-07-25T07:33:18.595Z,30
2017-07-25T07:33:59.188Z,25
2017-07-25T07:34:39.755Z,30
2017-07-25T07:35:20.320Z,30
2017-07-25T07:36:00.903Z,30
2017-07-25T07:36:41.478Z,30
2017-07-25T07:37:22.050Z,30
2017-07-25T07:38:02.627Z,30
2017-07-25T07:38:43.190Z,30
2017-07-25T07:39:23.770Z,30
2017-07-25T07:40:04.338Z,30
2017-07-25T07:40:44.912Z,30
2017-07-25T07:41:25.487Z,25
2017-07-25T07:42:06.071Z,30
2017-07-25T07:42:46.658Z,30
2017-07-25T07:43:27.220Z,30
2017-07-25T07:44:07.804Z,30
2017-07-25T07:44:48.374Z,25
2017-07-25T07:45:28.953Z,30
2017-07-25T07:46:09.523Z,30
2017-07-25T07:46:50.113Z,30
2017-07-25T07:47:30.682Z,30
2017-07-25T07:48:11.240Z,30
2017-07-25T07:48:51.835Z,30
2017-07-25T07:49:32.409Z,30
2017-07-25T07:50:12.984Z,30
2017-07-25T07:50:53.555Z,30
2017-07-25T07:51:34.169Z,30
2017-07-25T07:52:14.759Z,30
2017-07-25T07:52:55.346Z,30
2017-07-25T07:53:35.953Z,30
2017-07-25T07:54:16.523Z,30
2017-07-25T07:54:57.125Z,30
2017-07-25T07:55:37.702Z,30
2017-07-25T07:56:18.279Z,35
2017-07-25T07:56:58.844Z,35
2017-07-25T07:57:39.451Z,35
2017-07-25T07:58:20.037Z,35
2017-07-25T07:59:00.601Z,35
2017-07-25T07:59:41.204Z,35
2017-07-25T08:00:21.819Z,35
2017-07-25T08:01:02.398Z,35
2017-07-25T08:01:42.993Z,35
2017-07-25T08:02:23.580Z,35
2017-07-25T08:03:04.164Z,40
2017-07-25T08:03:44.743Z,40
2017-07-25T08:04:25.319Z,40
2017-07-25T08:05:05.899Z,40
2017-07-25T08:05:46.470Z,35
2017-07-25T08:06:27.023Z,35
2017-07-25T08:07:07.596Z,35
2017-07-25T08:07:48.168Z,35
2017-07-25T08:08:28.746Z,30
2017-07-25T08:09:09.329Z,30
2017-07-25T08:09:49.925Z,30
2017-07-25T08:10:30.514Z,25
2017-07-25T08:11:11.106Z,25
2017-07-25T08:11:51.663Z,25
2017-07-25T08:12:32.263Z,25
2017-07-25T08:13:12.937Z,20
2017-07-25T08:13:53.659Z,20
2017-07-25T08:14:34.236Z,20
2017-07-25T08:15:14.814Z,20
2017-07-25T08:15:55.391Z,20
2017-07-25T08:16:35.963Z,25
2017-07-25T08:17:16.565Z,25
2017-07-25T08:17:57.138Z,25
2017-07-25T08:18:37.810Z,25
2017-07-25T08:19:18.408Z,25
2017-07-25T08:19:58.986Z,25
2017-07-25T08:20:39.566Z,25
2017-07-25T08:21:20.161Z,25
2017-07-25T08:22:00.786Z,25
2017-07-25T08:22:41.355Z,25
2017-07-25T08:23:21.937Z,30
2017-07-25T08:24:02.513Z,25
2017-07-25T08:24:43.103Z,25
2017-07-25T08:25:23.664Z,30
2017-07-25T08:26:04.245Z,35
2017-07-25T08:26:44.826Z,40
2017-07-25T08:27:25.421Z,35
2017-07-25T08:28:06.060Z,40
2017-07-25T08:28:46.638Z,40
2017-07-25T08:29:27.231Z,40
2017-07-25T08:30:07.811Z,35
2017-07-25T08:30:48.479Z,40
2017-07-25T08:31:29.054Z,35
2017-07-25T08:32:09.620Z,35
2017-07-25T08:32:50.231Z,35
2017-07-25T08:33:30.807Z,35
2017-07-25T08:34:11.370Z,35
2017-07-25T08:34:51.948Z,35
2017-07-25T08:35:32.558Z,40
2017-07-25T08:36:13.167Z,40
2017-07-25T08:36:53.736Z,40
2017-07-25T08:37:34.319Z,40
2017-07-25T08:38:14.940Z,40
2017-07-25T08:38:55.546Z,40
2017-07-25T08:39:36.106Z,40
2017-07-25T08:40:16.700Z,35
2017-07-25T08:40:57.288Z,35
2017-07-25T08:41:37.871Z,35
2017-07-25T08:42:18.523Z,35
2017-07-25T08:42:59.085Z,40
2017-07-25T08:43:39.694Z,35
2017-07-25T08:44:20.431Z,40
2017-07-25T08:45:01.009Z,40
2017-07-25T08:45:41.575Z,40
2017-07-25T08:46:22.165Z,40
2017-07-25T08:47:02.748Z,40
2017-07-25T08:47:43.340Z,35
2017-07-25T08:48:23.943Z,35
2017-07-25T08:49:04.555Z,35
2017-07-25T08:49:45.127Z,40
2017-07-25T08:50:25.697Z,40
2017-07-25T08:51:06.265Z,40
2017-07-25T08:51:46.852Z,35
2017-07-25T08:52:27.431Z,35
2017-07-25T08:53:08.022Z,30
2017-07-25T08:53:48.596Z,35
2017-07-25T08:54:29.170Z,35
2017-07-25T08:55:09.744Z,35
2017-07-25T08:55:50.305Z,30
2017-07-25T08:56:30.897Z,30
2017-07-25T08:57:11.471Z,30
2017-07-25T08:57:52.038Z,25
2017-07-25T08:58:33.066Z,25
2017-07-25T08:59:13.662Z,30
2017-07-25T08:59:54.276Z,30
2017-07-25T09:00:34.844Z,30
2017-07-25T09:01:15.421Z,35
2017-07-25T09:01:56.012Z,35
2017-07-25T09:02:36.591Z,35
2017-07-25T09:03:17.163Z,35
2017-07-25T09:03:57.737Z,40
2017-07-25T09:04:38.628Z,35
2017-07-25T09:05:19.209Z,45
2017-07-25T09:05:59.786Z,50
2017-07-25T09:06:40.366Z,55
2017-07-25T09:07:20.983Z,60
2017-07-25T09:08:02.099Z,65
2017-07-25T09:08:42.938Z,70
2017-07-25T09:09:23.631Z,80
2017-07-25T09:10:07.568Z,90
2017-07-25T09:10:48.191Z,90
2017-07-25T09:11:28.765Z,90
2017-07-25T09:12:09.345Z,90
2017-07-25T09:12:49.926Z,90
2017-07-25T09:13:30.628Z,85
2017-07-25T09:14:11.257Z,80
2017-07-25T09:14:51.832Z,80
2017-07-25T09:15:32.662Z,75
2017-07-25T09:16:14.252Z,70
2017-07-25T09:16:57.721Z,70
2017-07-25T09:17:38.582Z,70
2017-07-25T09:18:19.158Z,65
2017-07-25T09:18:59.834Z,65
2017-07-25T09:19:40.407Z,60
2017-07-25T09:20:20.982Z,65
2017-07-25T09:21:01.635Z,60
2017-07-25T09:21:42.237Z,55
2017-07-25T09:22:22.856Z,50
2017-07-25T09:23:05.091Z,50
2017-07-25T09:23:45.686Z,50
2017-07-25T09:24:26.313Z,50
2017-07-25T09:25:06.941Z,50
2017-07-25T09:25:47.516Z,50
2017-07-25T09:26:28.162Z,55
2017-07-25T09:27:08.732Z,65
2017-07-25T09:27:49.306Z,65
2017-07-25T09:28:30.080Z,65
2017-07-25T09:29:10.763Z,60
2017-07-25T09:29:51.385Z,60
2017-07-25T09:30:31.962Z,65
2017-07-25T09:31:12.552Z,70
2017-07-25T09:31:53.161Z,70
2017-07-25T09:32:33.739Z,65
2017-07-25T09:33:14.346Z,65
2017-07-25T09:33:54.931Z,65
2017-07-25T09:34:35.505Z,70
2017-07-25T09:35:16.074Z,75
2017-07-25T09:35:56.648Z,75
2017-07-25T09:36:37.217Z,70
2017-07-25T09:37:17.786Z,65
2017-07-25T09:37:58.427Z,65
2017-07-25T09:38:39.095Z,70
2017-07-25T09:39:19.743Z,70
2017-07-25T09:40:00.381Z,60
2017-07-25T09:40:40.959Z,60
2017-07-25T09:41:21.746Z,55
2017-07-25T09:42:02.615Z,55
2017-07-25T09:42:43.176Z,55
2017-07-25T09:43:24.006Z,50
2017-07-25T09:44:04.725Z,55
2017-07-25T09:44:45.326Z,60
2017-07-25T09:45:25.892Z,60
2017-07-25T09:46:06.515Z,60
2017-07-25T09:46:47.145Z,60
2017-07-25T09:47:27.903Z,65
2017-07-25T09:48:08.846Z,65
2017-07-25T09:48:49.590Z,70
2017-07-25T09:49:30.158Z,75
2017-07-25T09:50:10.751Z,80
2017-07-25T09:50:51.380Z,85
2017-07-25T09:51:31.980Z,95